createdAt,value
2018-07-26T00:02:20.616Z,19.60
2018-07-26T00:04:48.953Z,19.50
2018-07-26T00:07:17.315Z,19.50
2018-07-26T00:09:45.685Z,19.40
2018-07-26T00:12:14.377Z,19.40
2018-07-26T00:14:42.763Z,19.40
2018-07-26T00:17:17.648Z,19.30
2018-07-26T00:19:45.980Z,19.20
2018-07-26T00:22:14.304Z,19.10
2018-07-26T00:24:42.628Z,19.00
2018-07-26T00:27:11.000Z,19.00
2018-07-26T00:29:39.348Z,19.00
2018-07-26T00:32:07.678Z,19.00
2018-07-26T00:34:36.064Z,18.90
2018-07-26T00:37:04.443Z,18.90
2018-07-26T00:39:32.768Z,18.80
2018-07-26T00:42:01.092Z,18.70
2018-07-26T00:44:29.424Z,18.70
2018-07-26T00:46:57.806Z,18.60
2018-07-26T00:49:26.169Z,18.70
2018-07-26T00:51:54.488Z,18.60
2018-07-26T00:54:22.936Z,18.60
2018-07-26T00:56:51.260Z,18.50
2018-07-26T00:59:19.641Z,18.50
2018-07-26T01:01:47.952Z,18.50
2018-07-26T01:04:16.280Z,18.50
2018-07-26T01:06:44.599Z,18.40
2018-07-26T01:09:13.247Z,18.40
2018-07-26T01:11:41.576Z,18.30
2018-07-26T01:14:09.941Z,18.30
2018-07-26T01:16:38.249Z,18.20
2018-07-26T01:19:06.626Z,18.20
2018-07-26T01:21:34.969Z,18.30
2018-07-26T01:24:03.397Z,18.30
2018-07-26T01:26:31.753Z,18.40
2018-07-26T01:29:00.089Z,18.50
2018-07-26T01:31:28.425Z,18.40
2018-07-26T01:33:56.780Z,18.30
2018-07-26T01:36:25.113Z,18.40
2018-07-26T01:38:54.320Z,18.50
2018-07-26T01:41:22.664Z,18.40
2018-07-26T01:44:02.405Z,18.30
2018-07-26T01:46:30.737Z,18.20
2018-07-26T01:48:59.064Z,18.20
2018-07-26T01:51:27.452Z,18.30
2018-07-26T01:53:55.781Z,18.30
2018-07-26T01:56:24.117Z,18.30
2018-07-26T01:58:52.449Z,18.40
2018-07-26T02:01:20.818Z,18.20
2018-07-26T02:03:49.157Z,18.10
2018-07-26T02:06:17.516Z,18.00
2018-07-26T02:08:45.888Z,18.00
2018-07-26T02:11:14.248Z,18.20
2018-07-26T02:13:42.565Z,18.20
2018-07-26T02:16:10.897Z,18.10
2018-07-26T02:18:39.226Z,18.00
2018-07-26T02:21:07.580Z,18.20
2018-07-26T02:23:35.891Z,18.10
2018-07-26T02:26:04.273Z,17.90
2018-07-26T02:28:32.630Z,17.90
2018-07-26T02:31:01.066Z,17.80
2018-07-26T02:33:29.354Z,17.80
2018-07-26T02:35:57.715Z,17.70
2018-07-26T02:38:26.057Z,17.60
2018-07-26T02:40:54.431Z,17.70
2018-07-26T02:43:22.761Z,17.70
2018-07-26T02:45:51.100Z,17.60
2018-07-26T02:48:19.418Z,17.60
2018-07-26T02:50:47.804Z,17.50
2018-07-26T02:53:16.132Z,17.50
2018-07-26T02:55:44.478Z,17.40
2018-07-26T02:58:12.802Z,17.40
2018-07-26T03:00:41.145Z,17.40
2018-07-26T03:03:09.484Z,17.40
2018-07-26T03:05:37.829Z,17.50
2018-07-26T03:08:06.190Z,17.60
2018-07-26T03:10:34.533Z,17.70
2018-07-26T03:13:02.845Z,17.60
2018-07-26T03:15:31.199Z,17.50
2018-07-26T03:17:59.518Z,17.50
2018-07-26T03:20:27.884Z,17.50
2018-07-26T03:22:56.217Z,17.40
2018-07-26T03:25:24.617Z,17.30
2018-07-26T03:27:52.978Z,17.30
2018-07-26T03:30:21.430Z,17.40
2018-07-26T03:32:49.796Z,17.60
2018-07-26T03:35:18.140Z,17.60
2018-07-26T03:37:46.487Z,17.40
2018-07-26T03:40:14.814Z,17.30
2018-07-26T03:42:43.142Z,17.20
2018-07-26T03:45:11.516Z,17.20
2018-07-26T03:47:39.865Z,17.40
2018-07-26T03:50:08.248Z,17.50
2018-07-26T03:52:36.624Z,17.40
2018-07-26T03:55:05.001Z,17.40
2018-07-26T03:57:33.346Z,17.60
2018-07-26T04:00:01.667Z,17.70
2018-07-26T04:02:30.018Z,17.60
2018-07-26T04:04:58.344Z,17.60
2018-07-26T04:07:26.676Z,17.70
2018-07-26T04:09:54.996Z,17.80
2018-07-26T04:12:23.332Z,17.80
2018-07-26T04:14:51.645Z,17.80
2018-07-26T04:17:20.001Z,17.60
2018-07-26T04:19:48.327Z,17.50
2018-07-26T04:22:16.668Z,17.50
2018-07-26T04:24:44.979Z,17.40
2018-07-26T04:27:13.337Z,17.40
2018-07-26T04:29:41.656Z,17.40
2018-07-26T04:32:10.539Z,17.40
2018-07-26T04:34:38.819Z,17.40
2018-07-26T04:37:07.201Z,17.50
2018-07-26T04:39:35.532Z,17.50
2018-07-26T04:42:03.877Z,17.60
2018-07-26T04:44:32.205Z,17.70
2018-07-26T04:47:00.669Z,17.70
2018-07-26T04:49:29.004Z,17.80
2018-07-26T04:51:57.378Z,17.90
2018-07-26T04:54:25.775Z,18.00
2018-07-26T04:56:54.088Z,18.20
2018-07-26T04:59:22.465Z,18.20
2018-07-26T05:01:50.832Z,18.20
2018-07-26T05:04:19.152Z,18.30
2018-07-26T05:06:47.517Z,18.50
2018-07-26T05:09:15.828Z,18.60
2018-07-26T05:11:44.172Z,18.50
2018-07-26T05:14:12.526Z,18.50
2018-07-26T05:16:40.871Z,18.50
2018-07-26T05:19:09.250Z,18.60
2018-07-26T05:21:37.740Z,18.60
2018-07-26T05:24:09.100Z,18.60
2018-07-26T05:26:38.181Z,18.70
2018-07-26T05:29:06.668Z,18.80
2018-07-26T05:31:34.980Z,18.90
2018-07-26T05:34:03.328Z,19.20
2018-07-26T05:36:31.673Z,19.70
2018-07-26T05:39:00.012Z,20.10
2018-07-26T05:41:28.412Z,20.20
2018-07-26T05:43:56.753Z,20.20
2018-07-26T05:46:25.100Z,20.30
2018-07-26T05:48:53.440Z,20.60
2018-07-26T05:51:21.783Z,20.90
2018-07-26T05:53:50.118Z,21.40
2018-07-26T05:56:18.444Z,21.90
2018-07-26T05:58:47.032Z,22.20
2018-07-26T06:01:15.351Z,22.10
2018-07-26T06:03:43.712Z,22.20
2018-07-26T06:06:12.064Z,22.10
2018-07-26T06:08:40.450Z,22.30
2018-07-26T06:11:08.804Z,22.80
2018-07-26T06:13:37.145Z,23.10
2018-07-26T06:16:05.577Z,23.40
2018-07-26T06:21:02.012Z,24.00
2018-07-26T06:23:30.345Z,24.20
2018-07-26T06:25:58.693Z,24.40
2018-07-26T06:28:27.053Z,24.30
2018-07-26T06:30:56.281Z,24.10
2018-07-26T06:33:26.617Z,23.80
2018-07-26T06:35:56.142Z,23.60
2018-07-26T06:39:32.821Z,23.60
2018-07-26T06:42:02.649Z,23.60
2018-07-26T06:44:30.997Z,24.00
2018-07-26T06:46:59.361Z,24.00
2018-07-26T06:49:27.667Z,24.00
2018-07-26T06:51:56.007Z,24.10
2018-07-26T06:54:24.380Z,24.20
2018-07-26T06:56:52.697Z,24.40
2018-07-26T06:59:23.418Z,24.60
2018-07-26T07:01:53.097Z,24.80
2018-07-26T07:04:23.572Z,25.00
2018-07-26T07:06:53.052Z,24.90
2018-07-26T07:09:24.101Z,25.10
2018-07-26T07:11:54.345Z,25.40
2018-07-26T07:14:26.255Z,25.70
2018-07-26T07:16:56.036Z,25.70
2018-07-26T07:19:24.434Z,25.70
2018-07-26T07:21:54.313Z,25.70
2018-07-26T07:24:27.803Z,25.70
2018-07-26T07:26:59.223Z,25.90
2018-07-26T07:29:27.633Z,26.00
2018-07-26T07:31:55.983Z,26.10
2018-07-26T07:34:24.321Z,26.40
2018-07-26T07:36:52.660Z,26.70
2018-07-26T07:39:23.643Z,26.50
2018-07-26T07:41:52.119Z,26.50
2018-07-26T07:44:20.380Z,26.50
2018-07-26T07:46:48.717Z,26.50
2018-07-26T07:49:17.054Z,26.80
2018-07-26T07:51:45.399Z,26.90
2018-07-26T07:54:13.762Z,27.00
2018-07-26T07:56:42.088Z,27.00
2018-07-26T07:59:10.429Z,26.90
2018-07-26T08:01:38.760Z,27.10
2018-07-26T08:04:08.456Z,27.30
2018-07-26T08:06:36.816Z,27.50
2018-07-26T08:09:08.017Z,27.60
2018-07-26T08:11:36.340Z,27.80
2018-07-26T08:14:05.310Z,28.00
2018-07-26T08:16:36.045Z,27.90
2018-07-26T08:19:06.215Z,27.90
2018-07-26T08:21:36.049Z,27.80
2018-07-26T08:24:05.969Z,28.00
2018-07-26T08:29:02.709Z,28.70
2018-07-26T08:31:31.074Z,29.30
2018-07-26T08:33:59.436Z,29.40
2018-07-26T08:36:27.748Z,29.40
2018-07-26T08:38:56.150Z,29.60
2018-07-26T08:41:24.458Z,30.10
2018-07-26T08:43:52.804Z,30.50
2018-07-26T08:46:21.144Z,31.10
2018-07-26T08:48:49.464Z,31.30
2018-07-26T08:53:51.988Z,31.80
2018-07-26T08:56:20.335Z,32.10
2018-07-26T08:58:48.710Z,32.30
2018-07-26T09:01:17.299Z,32.60
2018-07-26T09:03:45.990Z,32.90
2018-07-26T09:06:15.107Z,32.80
2018-07-26T09:11:13.053Z,32.40
2018-07-26T09:13:42.738Z,32.20
2018-07-26T09:16:13.241Z,32.00
2018-07-26T09:18:43.047Z,31.80
2018-07-26T09:21:11.442Z,31.60
2018-07-26T09:23:39.750Z,31.60
2018-07-26T09:28:36.177Z,31.50
2018-07-26T09:31:04.512Z,31.60
2018-07-26T09:33:32.857Z,31.60
2018-07-26T09:36:01.197Z,31.90
2018-07-26T09:38:29.512Z,32.00
2018-07-26T09:40:57.869Z,31.80
2018-07-26T09:43:26.215Z,32.00
2018-07-26T09:45:54.628Z,32.10
2018-07-26T09:48:22.934Z,32.20
2018-07-26T09:50:51.300Z,32.20
2018-07-26T09:53:19.606Z,32.20
2018-07-26T09:55:48.324Z,32.10
2018-07-26T09:58:16.876Z,32.00
2018-07-26T10:00:50.522Z,32.00
2018-07-26T10:03:19.184Z,32.00
2018-07-26T10:05:47.517Z,32.00
2018-07-26T10:08:15.830Z,32.00
2018-07-26T10:10:44.169Z,32.00
2018-07-26T10:13:12.529Z,32.20
2018-07-26T10:15:40.858Z,32.00
2018-07-26T10:18:09.175Z,32.20
2018-07-26T10:20:39.231Z,32.20
2018-07-26T10:23:07.549Z,32.40
2018-07-26T10:25:36.684Z,32.50
2018-07-26T10:28:05.089Z,32.80
2018-07-26T10:30:33.496Z,32.90
2018-07-26T10:33:01.827Z,32.90
2018-07-26T10:35:30.205Z,33.00
2018-07-26T10:37:58.691Z,33.20
2018-07-26T10:40:27.037Z,33.50
2018-07-26T10:42:55.356Z,34.00
2018-07-26T10:45:23.692Z,34.20
2018-07-26T10:47:52.009Z,34.70
2018-07-26T10:50:20.344Z,34.40
2018-07-26T10:52:48.680Z,34.60
2018-07-26T10:55:17.013Z,35.20
2018-07-26T10:57:45.365Z,35.70
2018-07-26T11:00:13.745Z,36.50
2018-07-26T11:02:42.068Z,37.10
2018-07-26T11:05:10.672Z,37.20
2018-07-26T11:07:39.542Z,37.10
2018-07-26T11:10:09.369Z,37.40
2018-07-26T11:12:37.682Z,37.80
2018-07-26T11:15:12.607Z,37.70
2018-07-26T11:17:42.368Z,36.60
2018-07-26T11:20:12.946Z,37.40
2018-07-26T11:22:44.128Z,38.20
2018-07-26T11:25:12.540Z,38.30
2018-07-26T11:27:40.888Z,38.10
2018-07-26T11:30:09.217Z,38.10
2018-07-26T11:32:37.597Z,37.90
2018-07-26T11:35:06.296Z,38.00
2018-07-26T11:37:34.678Z,38.40
2018-07-26T11:40:03.258Z,38.50
2018-07-26T11:42:31.641Z,38.70
2018-07-26T11:44:59.971Z,38.30
2018-07-26T11:47:28.412Z,38.00
2018-07-26T11:49:57.342Z,38.40
2018-07-26T11:52:26.774Z,38.20
2018-07-26T11:54:56.856Z,38.40
2018-07-26T11:57:26.043Z,38.30
2018-07-26T11:59:55.407Z,38.60
2018-07-26T12:02:25.284Z,38.60
2018-07-26T12:04:53.666Z,38.40
2018-07-26T12:07:32.598Z,38.00
2018-07-26T12:10:01.863Z,38.50
2018-07-26T12:12:31.278Z,38.90
2018-07-26T12:15:01.881Z,39.20
2018-07-26T12:17:31.531Z,39.20
2018-07-26T12:20:01.135Z,39.20
2018-07-26T12:22:29.526Z,38.90
2018-07-26T12:24:57.876Z,38.50
2018-07-26T12:27:28.743Z,38.60
2018-07-26T12:30:00.085Z,38.70
2018-07-26T12:32:29.714Z,38.90
2018-07-26T12:34:58.065Z,38.80
2018-07-26T12:37:26.444Z,38.70
2018-07-26T12:39:54.804Z,38.50
2018-07-26T12:42:23.173Z,38.60
2018-07-26T12:44:51.489Z,38.10
2018-07-26T12:47:19.854Z,38.00
2018-07-26T12:49:48.217Z,38.80
2018-07-26T12:52:19.660Z,38.60
2018-07-26T12:54:49.046Z,38.00
2018-07-26T12:57:18.440Z,37.80
2018-07-26T12:59:48.397Z,37.30
2018-07-26T13:02:18.357Z,37.50
2018-07-26T13:04:48.907Z,37.50
2018-07-26T13:07:18.312Z,36.80
2018-07-26T13:09:47.326Z,35.30
2018-07-26T13:12:16.341Z,35.30
2018-07-26T13:14:44.723Z,36.10
2018-07-26T13:17:13.543Z,36.60
2018-07-26T13:19:41.916Z,37.00
2018-07-26T13:22:10.265Z,37.20
2018-07-26T13:24:38.633Z,36.90
2018-07-26T13:27:07.033Z,36.70
2018-07-26T13:29:35.350Z,36.20
2018-07-26T13:32:03.705Z,36.00
2018-07-26T13:34:32.017Z,36.00
2018-07-26T13:37:00.381Z,36.10
2018-07-26T13:39:28.681Z,35.70
2018-07-26T13:41:57.033Z,35.60
2018-07-26T13:44:25.364Z,35.70
2018-07-26T13:46:53.756Z,35.70
2018-07-26T13:49:22.069Z,35.50
2018-07-26T13:51:52.937Z,35.10
2018-07-26T13:54:21.492Z,35.10
2018-07-26T13:56:51.167Z,35.00
2018-07-26T13:59:19.554Z,35.10
2018-07-26T14:01:47.905Z,35.10
2018-07-26T14:04:16.228Z,34.80
2018-07-26T14:06:44.689Z,34.70
2018-07-26T14:09:13.466Z,34.60
2018-07-26T14:11:42.996Z,34.10
2018-07-26T14:14:11.454Z,33.60
2018-07-26T14:16:41.002Z,33.10
2018-07-26T14:19:09.929Z,32.70
2018-07-26T14:21:38.401Z,32.80
2018-07-26T14:24:12.828Z,33.00
2018-07-26T14:26:41.196Z,33.20
2018-07-26T14:29:09.532Z,33.40
2018-07-26T14:31:41.177Z,33.50
2018-07-26T14:34:11.174Z,33.50
2018-07-26T14:36:40.981Z,33.50
2018-07-26T14:39:11.716Z,33.50
2018-07-26T14:41:42.095Z,33.60
2018-07-26T14:44:12.255Z,33.70
2018-07-26T14:46:42.811Z,33.50
2018-07-26T14:49:11.214Z,33.40
2018-07-26T14:51:39.563Z,33.30
2018-07-26T14:54:07.930Z,33.30
2018-07-26T14:56:37.699Z,33.50
2018-07-26T14:59:06.329Z,33.50
2018-07-26T15:01:36.059Z,33.40
2018-07-26T15:04:05.163Z,33.50
2018-07-26T15:06:35.132Z,33.50
2018-07-26T15:09:07.192Z,33.40
2018-07-26T15:11:37.989Z,33.30
2018-07-26T15:14:06.456Z,33.50
2018-07-26T15:16:35.566Z,33.60
2018-07-26T15:19:06.854Z,33.50
2018-07-26T15:24:06.155Z,32.80
2018-07-26T15:26:35.714Z,32.70
2018-07-26T15:29:04.259Z,32.70
2018-07-26T15:31:33.162Z,32.80
2018-07-26T15:34:09.729Z,32.80
2018-07-26T15:36:38.779Z,32.70
2018-07-26T15:39:09.880Z,32.60
2018-07-26T15:41:42.970Z,32.60
2018-07-26T15:44:17.366Z,32.50
2018-07-26T15:46:48.984Z,32.60
2018-07-26T15:49:18.676Z,32.60
2018-07-26T15:51:48.533Z,32.60
2018-07-26T15:54:17.008Z,32.70
2018-07-26T15:56:45.355Z,32.70
2018-07-26T15:59:13.906Z,32.60
2018-07-26T16:01:43.847Z,32.50
2018-07-26T16:04:12.289Z,32.50
2018-07-26T16:06:40.995Z,32.50
2018-07-26T16:09:11.764Z,32.50
2018-07-26T16:11:41.480Z,32.50
2018-07-26T16:14:11.114Z,32.50
2018-07-26T16:16:39.937Z,32.20
2018-07-26T16:19:11.366Z,32.20
2018-07-26T16:21:39.973Z,32.30
2018-07-26T16:24:08.307Z,32.20
2018-07-26T16:26:37.406Z,32.20
2018-07-26T16:29:06.783Z,32.20
2018-07-26T16:31:36.302Z,32.20
2018-07-26T16:34:04.667Z,32.20
2018-07-26T16:36:33.022Z,32.00
2018-07-26T16:39:02.360Z,32.00
2018-07-26T16:41:31.782Z,32.00
2018-07-26T16:44:01.368Z,31.90
2018-07-26T16:48:59.221Z,31.80
2018-07-26T16:51:28.454Z,31.90
2018-07-26T16:53:57.838Z,31.90
2018-07-26T16:56:26.620Z,31.90
2018-07-26T16:58:55.110Z,31.90
2018-07-26T17:01:24.023Z,31.70
2018-07-26T17:03:53.666Z,31.70
2018-07-26T17:06:24.582Z,31.70
2018-07-26T17:08:54.192Z,31.70
2018-07-26T17:11:28.800Z,31.60
2018-07-26T17:13:58.587Z,31.40
2018-07-26T17:16:28.868Z,31.30
2018-07-26T17:18:59.190Z,31.40
2018-07-26T17:21:30.886Z,31.30
2018-07-26T17:23:59.288Z,31.20
2018-07-26T17:26:30.307Z,31.10
2018-07-26T17:29:00.270Z,31.10
2018-07-26T17:31:28.984Z,31.20
2018-07-26T17:33:57.965Z,31.40
2018-07-26T17:36:27.548Z,31.50
2018-07-26T17:38:56.386Z,31.60
2018-07-26T17:41:25.240Z,31.60
2018-07-26T17:43:53.700Z,31.40
2018-07-26T17:46:23.243Z,31.30
2018-07-26T17:48:52.002Z,31.30
2018-07-26T17:51:21.056Z,31.10
2018-07-26T17:53:49.482Z,31.00
2018-07-26T17:56:18.474Z,30.90
2018-07-26T17:58:47.175Z,30.80
2018-07-26T18:01:16.527Z,30.70
2018-07-26T18:03:45.707Z,30.50
2018-07-26T18:06:14.235Z,30.40
2018-07-26T18:08:43.229Z,30.20
2018-07-26T18:11:12.626Z,30.20
2018-07-26T18:13:41.125Z,30.20
2018-07-26T18:16:11.217Z,30.00
2018-07-26T18:18:40.836Z,29.90
2018-07-26T18:21:09.593Z,29.70
2018-07-26T18:23:39.224Z,29.40
2018-07-26T18:26:09.074Z,29.20
2018-07-26T18:28:37.975Z,29.10
2018-07-26T18:31:08.075Z,28.90
2018-07-26T18:33:39.467Z,28.80
2018-07-26T18:36:09.050Z,28.60
2018-07-26T18:38:39.201Z,28.50
2018-07-26T18:41:08.731Z,28.30
2018-07-26T18:43:38.748Z,28.20
2018-07-26T18:46:07.833Z,28.00
2018-07-26T18:48:37.937Z,27.80
2018-07-26T18:51:08.478Z,27.70
2018-07-26T18:53:36.869Z,27.60
2018-07-26T18:56:07.927Z,27.40
2018-07-26T18:58:37.574Z,27.20
2018-07-26T19:01:07.318Z,27.20
2018-07-26T19:03:36.671Z,27.10
2018-07-26T19:06:05.882Z,26.90
2018-07-26T19:08:36.188Z,26.80
2018-07-26T19:11:06.842Z,26.70
2018-07-26T19:13:36.434Z,26.60
2018-07-26T19:16:07.012Z,26.50
2018-07-26T19:18:35.425Z,26.50
2018-07-26T19:21:04.197Z,26.30
2018-07-26T19:23:32.613Z,26.10
2018-07-26T19:26:01.092Z,26.10
2018-07-26T19:28:30.320Z,26.10
2018-07-26T19:30:58.757Z,26.00
2018-07-26T19:33:27.262Z,25.70
2018-07-26T19:35:55.785Z,25.60
2018-07-26T19:38:24.454Z,25.40
2018-07-26T19:40:52.882Z,25.30
2018-07-26T19:43:21.425Z,25.20
2018-07-26T19:45:49.937Z,25.20
2018-07-26T19:48:18.489Z,25.10
2018-07-26T19:50:46.998Z,25.10
2018-07-26T19:53:15.888Z,24.90
2018-07-26T19:55:44.861Z,24.90
2018-07-26T19:58:14.862Z,24.90
2018-07-26T20:00:43.267Z,24.80
2018-07-26T20:03:12.640Z,24.90
2018-07-26T20:05:41.093Z,24.80
2018-07-26T20:08:09.413Z,24.70
2018-07-26T20:10:38.109Z,24.60
2018-07-26T20:13:07.606Z,24.50
2018-07-26T20:15:35.980Z,24.50
2018-07-26T20:18:04.329Z,24.40
2018-07-26T20:20:32.727Z,24.40
2018-07-26T20:23:01.102Z,24.30
2018-07-26T20:25:29.477Z,24.20
2018-07-26T20:27:57.922Z,24.10
2018-07-26T20:30:26.305Z,24.00
2018-07-26T20:32:55.482Z,23.90
2018-07-26T20:35:24.084Z,24.00
2018-07-26T20:37:54.421Z,23.90
2018-07-26T20:40:23.386Z,23.90
2018-07-26T20:42:52.389Z,24.00
2018-07-26T20:45:20.790Z,24.10
2018-07-26T20:47:49.101Z,24.00
2018-07-26T20:50:17.653Z,23.80
2018-07-26T20:52:46.026Z,23.70
2018-07-26T20:55:14.956Z,23.60
2018-07-26T20:57:43.520Z,23.60
2018-07-26T21:00:13.352Z,23.50
2018-07-26T21:02:42.729Z,23.50
2018-07-26T21:05:11.480Z,23.30
2018-07-26T21:07:40.871Z,23.30
2018-07-26T21:10:10.772Z,23.30
2018-07-26T21:12:40.592Z,23.10
2018-07-26T21:15:09.840Z,23.30
2018-07-26T21:17:38.219Z,23.30
2018-07-26T21:20:07.712Z,23.20
2018-07-26T21:22:36.050Z,23.30
2018-07-26T21:25:05.039Z,23.20
2018-07-26T21:27:33.557Z,23.00
2018-07-26T21:30:01.908Z,22.90
2018-07-26T21:32:30.383Z,22.80
2018-07-26T21:34:58.771Z,22.80
2018-07-26T21:37:27.185Z,22.70
2018-07-26T21:39:55.513Z,22.60
2018-07-26T21:42:24.111Z,22.70
2018-07-26T21:44:53.064Z,22.60
2018-07-26T21:47:21.514Z,22.60
2018-07-26T21:49:49.968Z,22.80
2018-07-26T21:52:18.484Z,22.80
2018-07-26T21:54:46.888Z,22.80
2018-07-26T21:57:15.289Z,22.50
2018-07-26T21:59:43.678Z,22.40
2018-07-26T22:02:13.486Z,22.50
2018-07-26T22:04:41.976Z,22.40
2018-07-26T22:07:10.313Z,22.10
2018-07-26T22:09:38.725Z,21.90
2018-07-26T22:12:07.117Z,21.90
2018-07-26T22:14:35.458Z,21.90
2018-07-26T22:17:03.944Z,21.90
2018-07-26T22:19:32.336Z,21.80
2018-07-26T22:22:00.772Z,21.60
2018-07-26T22:24:29.061Z,21.40
2018-07-26T22:26:57.421Z,21.20
2018-07-26T22:29:25.766Z,21.20
2018-07-26T22:31:54.181Z,21.10
2018-07-26T22:34:22.489Z,21.30
2018-07-26T22:36:50.845Z,21.50
2018-07-26T22:39:19.149Z,21.60
2018-07-26T22:41:47.480Z,21.30
2018-07-26T22:44:15.795Z,21.20
2018-07-26T22:46:44.253Z,21.10
2018-07-26T22:49:12.572Z,21.00
2018-07-26T22:51:40.924Z,20.90
2018-07-26T22:54:09.259Z,21.00
2018-07-26T22:56:37.599Z,21.10
2018-07-26T22:59:05.913Z,21.10
2018-07-26T23:01:34.257Z,21.20
2018-07-26T23:04:02.588Z,21.10
2018-07-26T23:06:30.966Z,21.00
2018-07-26T23:08:59.320Z,20.80
2018-07-26T23:11:27.673Z,20.70
2018-07-26T23:13:55.996Z,20.60
2018-07-26T23:16:24.324Z,20.50
2018-07-26T23:18:52.644Z,20.40
2018-07-26T23:21:21.017Z,20.30
2018-07-26T23:23:49.336Z,20.20
2018-07-26T23:26:17.719Z,20.10
2018-07-26T23:28:46.034Z,20.00
2018-07-26T23:31:15.183Z,20.00
2018-07-26T23:33:43.627Z,19.90
2018-07-26T23:36:13.078Z,19.90
2018-07-26T23:38:41.405Z,19.90
2018-07-26T23:41:09.730Z,19.80
2018-07-26T23:43:38.204Z,19.70
2018-07-26T23:46:06.620Z,19.70
2018-07-26T23:48:34.958Z,19.60
2018-07-26T23:51:03.285Z,19.60
2018-07-26T23:53:31.618Z,19.70
2018-07-26T23:55:59.928Z,19.40
2018-07-26T23:58:28.269Z,19.30
